Cruger, MS (38924)

6:16 AM CST on January 22, 2017 (GMT -0600)
North Greenwood | | Change Station

Elev 141 ft 33.53 °N, 90.18 °W | Updated 4 minutes ago

Rain
Rain
55.2 °F
Feels Like 55.2 °F
N
0.0
Wind Variable Wind from SSE

Today
High -- | Low -- °F
--% Chance of Precip.
Yesterday
High -- | Low -- °F
Precip. -- in
Pressure 29.45 in
Visibility 10.0 miles
Clouds Mostly Cloudy 8500 ft
Dew Point 54 °F
Humidity 96%
Rainfall 0.00 in
Snow Depth Not available.
7:02 AM 5:23 PM
Waning Crescent, 27% visible
METAR KGWO 221153Z AUTO 22006KT 10SM BKN085 12/11 A2945 RMK AO2 LTG DSNT S AND SW SLP972 60001 70020 T01220106 10139 20111 56006
Pressure 29.45 in
Visibility 10.0 miles
Clouds Mostly Cloudy 8500 ft
Dew Point 54 °F
Humidity 96%
Rainfall 0.00 in
Snow Depth Not available.
7:02 AM 5:23 PM
Waning Crescent, 27% visible
METAR KGWO 221153Z AUTO 22006KT 10SM BKN085 12/11 A2945 RMK AO2 LTG DSNT S AND SW SLP972 60001 70020 T01220106 10139 20111 56006

Get Your Daily Forecast Email!

Thanks for signing up!

Be on the lookout for a verification email in your inbox.

You'll start receiving the daily forecast at 8 AM.

×

10-Day Weather Forecast

Almanac

Astronomy

Jan. 22, 2017 Rise Set
Actual Time
Civil Twilight
Nautical Twilight
Astronomical Twilight
Moon
Length of Visible Light
Length of Day
Tomorrow will be .
, % of the Moon is Illuminated

Today's Extremes

State Highs State Lows

Community

WunderPhotos

Upload Photos

1,962,540 photos uploaded!

WunderBlog® & News

Nearby

Air Quality

  Air Quality AQ Index Pollutant
Not available.

Snow Depth

Station Depth Elevation

Earthquake Activity

City Distance Mag. Time & Date
Minimum magnitude displayed is 2.5.

Coastal Water Temperatures

Place Temperature

Stations

Nearby Weather Stations

Station Location Temp. Windchill Dew Point Humidity Wind Precip. Elev Updated Type
                   

Watches & Warnings

There are currently no watches in effect.